sensor_id;sensor_type;location;lat;lon;timestamp;P1;durP1;ratioP1;P2;durP2;ratioP2
37609;SDS011;23457;51.966;8.230;2023-01-10T00:02:21;4.82;;;1.75;;
37609;SDS011;23457;51.966;8.230;2023-01-10T00:04:47;7.95;;;1.73;;
37609;SDS011;23457;51.966;8.230;2023-01-10T00:07:14;4.75;;;1.40;;
37609;SDS011;23457;51.966;8.230;2023-01-10T00:09:41;9.93;;;2.05;;
37609;SDS011;23457;51.966;8.230;2023-01-10T00:12:07;8.25;;;2.63;;
37609;SDS011;23457;51.966;8.230;2023-01-10T00:14:53;5.80;;;2.40;;
37609;SDS011;23457;51.966;8.230;2023-01-10T00:17:20;6.80;;;2.88;;
37609;SDS011;23457;51.966;8.230;2023-01-10T00:19:47;11.77;;;3.28;;
37609;SDS011;23457;51.966;8.230;2023-01-10T00:22:13;13.70;;;3.38;;
37609;SDS011;23457;51.966;8.230;2023-01-10T00:24:41;9.02;;;3.72;;
37609;SDS011;23457;51.966;8.230;2023-01-10T00:27:09;8.25;;;4.13;;
37609;SDS011;23457;51.966;8.230;2023-01-10T00:29:38;11.35;;;4.75;;
37609;SDS011;23457;51.966;8.230;2023-01-10T00:32:05;13.68;;;5.00;;
37609;SDS011;23457;51.966;8.230;2023-01-10T00:34:32;7.72;;;4.57;;
37609;SDS011;23457;51.966;8.230;2023-01-10T00:37:00;9.45;;;4.70;;
37609;SDS011;23457;51.966;8.230;2023-01-10T00:39:26;15.63;;;7.38;;
37609;SDS011;23457;51.966;8.230;2023-01-10T00:41:53;13.73;;;6.55;;
37609;SDS011;23457;51.966;8.230;2023-01-10T00:44:38;15.00;;;5.68;;
37609;SDS011;23457;51.966;8.230;2023-01-10T00:47:04;8.32;;;4.80;;
37609;SDS011;23457;51.966;8.230;2023-01-10T00:49:31;15.05;;;5.00;;
37609;SDS011;23457;51.966;8.230;2023-01-10T00:51:58;11.77;;;5.78;;
37609;SDS011;23457;51.966;8.230;2023-01-10T00:54:25;15.77;;;7.78;;
37609;SDS011;23457;51.966;8.230;2023-01-10T00:56:52;17.38;;;8.27;;
37609;SDS011;23457;51.966;8.230;2023-01-10T00:59:18;20.25;;;9.48;;
37609;SDS011;23457;51.966;8.230;2023-01-10T01:01:45;16.10;;;9.18;;
37609;SDS011;23457;51.966;8.230;2023-01-10T01:04:12;17.23;;;8.75;;
37609;SDS011;23457;51.966;8.230;2023-01-10T01:06:38;22.70;;;9.15;;
37609;SDS011;23457;51.966;8.230;2023-01-10T01:09:05;26.30;;;10.10;;
37609;SDS011;23457;51.966;8.230;2023-01-10T01:11:31;18.55;;;10.50;;
37609;SDS011;23457;51.966;8.230;2023-01-10T01:13:58;26.02;;;11.07;;
37609;SDS011;23457;51.966;8.230;2023-01-10T01:16:24;21.10;;;11.75;;
37609;SDS011;23457;51.966;8.230;2023-01-10T01:18:51;24.90;;;11.63;;
37609;SDS011;23457;51.966;8.230;2023-01-10T01:21:18;23.05;;;11.02;;
37609;SDS011;23457;51.966;8.230;2023-01-10T01:23:46;26.08;;;11.75;;
37609;SDS011;23457;51.966;8.230;2023-01-10T01:26:13;24.90;;;11.52;;
37609;SDS011;23457;51.966;8.230;2023-01-10T01:28:39;33.45;;;12.38;;
37609;SDS011;23457;51.966;8.230;2023-01-10T01:31:09;39.60;;;13.38;;
37609;SDS011;23457;51.966;8.230;2023-01-10T01:33:36;24.65;;;11.57;;
37609;SDS011;23457;51.966;8.230;2023-01-10T01:36:06;36.22;;;11.80;;
37609;SDS011;23457;51.966;8.230;2023-01-10T01:38:35;38.03;;;12.45;;
37609;SDS011;23457;51.966;8.230;2023-01-10T01:41:03;31.17;;;11.88;;
37609;SDS011;23457;51.966;8.230;2023-01-10T01:44:23;26.15;;;10.98;;
37609;SDS011;23457;51.966;8.230;2023-01-10T01:46:45;29.48;;;12.52;;
37609;SDS011;23457;51.966;8.230;2023-01-10T01:49:19;33.78;;;11.88;;
37609;SDS011;23457;51.966;8.230;2023-01-10T01:51:51;30.60;;;11.35;;
37609;SDS011;23457;51.966;8.230;2023-01-10T01:54:25;22.83;;;11.13;;
37609;SDS011;23457;51.966;8.230;2023-01-10T01:56:54;35.28;;;10.80;;
37609;SDS011;23457;51.966;8.230;2023-01-10T01:59:42;38.72;;;12.77;;
37609;SDS011;23457;51.966;8.230;2023-01-10T02:02:12;29.02;;;10.68;;
37609;SDS011;23457;51.966;8.230;2023-01-10T02:07:23;32.40;;;10.32;;
37609;SDS011;23457;51.966;8.230;2023-01-10T02:09:53;32.22;;;10.45;;
37609;SDS011;23457;51.966;8.230;2023-01-10T02:12:34;33.55;;;11.80;;
37609;SDS011;23457;51.966;8.230;2023-01-10T02:15:01;34.95;;;10.80;;
37609;SDS011;23457;51.966;8.230;2023-01-10T02:17:29;30.50;;;10.45;;
37609;SDS011;23457;51.966;8.230;2023-01-10T02:19:56;35.17;;;10.55;;
37609;SDS011;23457;51.966;8.230;2023-01-10T02:28:25;26.63;;;7.95;;
37609;SDS011;23457;51.966;8.230;2023-01-10T02:38:45;24.38;;;7.20;;
37609;SDS011;23457;51.966;8.230;2023-01-10T02:46:43;21.73;;;8.32;;
37609;SDS011;23457;51.966;8.230;2023-01-10T02:49:12;28.52;;;7.07;;
37609;SDS011;23457;51.966;8.230;2023-01-10T02:51:38;31.25;;;8.07;;
37609;SDS011;23457;51.966;8.230;2023-01-10T02:54:10;21.80;;;7.10;;
37609;SDS011;23457;51.966;8.230;2023-01-10T02:57:11;30.10;;;7.50;;
37609;SDS011;23457;51.966;8.230;2023-01-10T03:08:35;31.05;;;7.65;;
37609;SDS011;23457;51.966;8.230;2023-01-10T03:11:08;24.02;;;7.10;;
37609;SDS011;23457;51.966;8.230;2023-01-10T03:13:47;24.50;;;7.73;;
37609;SDS011;23457;51.966;8.230;2023-01-10T03:16:19;21.20;;;6.65;;
37609;SDS011;23457;51.966;8.230;2023-01-10T03:18:55;26.92;;;6.90;;
37609;SDS011;23457;51.966;8.230;2023-01-10T03:21:29;21.13;;;6.37;;
37609;SDS011;23457;51.966;8.230;2023-01-10T03:24:00;22.48;;;6.30;;
37609;SDS011;23457;51.966;8.230;2023-01-10T03:29:18;20.08;;;6.63;;
37609;SDS011;23457;51.966;8.230;2023-01-10T03:31:51;20.83;;;6.53;;
37609;SDS011;23457;51.966;8.230;2023-01-10T03:34:22;32.65;;;6.25;;
37609;SDS011;23457;51.966;8.230;2023-01-10T03:39:26;26.75;;;6.68;;
37609;SDS011;23457;51.966;8.230;2023-01-10T03:47:23;22.30;;;6.85;;
37609;SDS011;23457;51.966;8.230;2023-01-10T03:50:07;34.58;;;8.60;;
37609;SDS011;23457;51.966;8.230;2023-01-10T03:52:38;31.95;;;8.05;;
37609;SDS011;23457;51.966;8.230;2023-01-10T03:55:09;25.23;;;6.30;;
37609;SDS011;23457;51.966;8.230;2023-01-10T03:57:40;17.70;;;6.60;;
37609;SDS011;23457;51.966;8.230;2023-01-10T04:00:08;26.02;;;6.88;;
37609;SDS011;23457;51.966;8.230;2023-01-10T04:02:35;22.33;;;7.25;;
37609;SDS011;23457;51.966;8.230;2023-01-10T04:05:02;26.52;;;7.65;;
37609;SDS011;23457;51.966;8.230;2023-01-10T04:07:29;20.60;;;7.82;;
37609;SDS011;23457;51.966;8.230;2023-01-10T04:09:56;25.15;;;7.57;;
37609;SDS011;23457;51.966;8.230;2023-01-10T04:12:23;24.73;;;6.80;;
37609;SDS011;23457;51.966;8.230;2023-01-10T04:14:50;19.65;;;7.10;;
37609;SDS011;23457;51.966;8.230;2023-01-10T04:17:16;24.60;;;7.80;;
37609;SDS011;23457;51.966;8.230;2023-01-10T04:19:43;21.88;;;7.70;;
37609;SDS011;23457;51.966;8.230;2023-01-10T04:22:11;30.88;;;7.75;;
37609;SDS011;23457;51.966;8.230;2023-01-10T04:24:38;21.75;;;7.55;;
37609;SDS011;23457;51.966;8.230;2023-01-10T04:27:05;20.95;;;6.68;;
37609;SDS011;23457;51.966;8.230;2023-01-10T04:29:32;22.42;;;7.32;;
37609;SDS011;23457;51.966;8.230;2023-01-10T04:31:59;21.58;;;6.45;;
37609;SDS011;23457;51.966;8.230;2023-01-10T04:34:26;22.00;;;7.10;;
37609;SDS011;23457;51.966;8.230;2023-01-10T04:36:53;20.90;;;7.20;;
37609;SDS011;23457;51.966;8.230;2023-01-10T04:39:19;24.45;;;7.47;;
37609;SDS011;23457;51.966;8.230;2023-01-10T04:41:46;29.20;;;7.93;;
37609;SDS011;23457;51.966;8.230;2023-01-10T04:44:13;27.77;;;7.10;;
37609;SDS011;23457;51.966;8.230;2023-01-10T04:46:39;19.60;;;6.95;;
37609;SDS011;23457;51.966;8.230;2023-01-10T04:49:07;26.27;;;7.35;;
37609;SDS011;23457;51.966;8.230;2023-01-10T04:51:35;27.00;;;7.70;;
37609;SDS011;23457;51.966;8.230;2023-01-10T04:54:01;23.48;;;7.32;;
37609;SDS011;23457;51.966;8.230;2023-01-10T04:56:28;24.08;;;6.38;;
37609;SDS011;23457;51.966;8.230;2023-01-10T04:58:55;22.92;;;7.28;;
37609;SDS011;23457;51.966;8.230;2023-01-10T05:01:22;20.55;;;6.65;;
37609;SDS011;23457;51.966;8.230;2023-01-10T05:03:52;20.58;;;6.28;;
37609;SDS011;23457;51.966;8.230;2023-01-10T05:06:21;25.48;;;7.90;;
37609;SDS011;23457;51.966;8.230;2023-01-10T05:08:48;26.10;;;6.60;;
37609;SDS011;23457;51.966;8.230;2023-01-10T05:11:15;27.52;;;7.80;;
37609;SDS011;23457;51.966;8.230;2023-01-10T05:13:42;23.95;;;6.53;;
37609;SDS011;23457;51.966;8.230;2023-01-10T05:16:09;24.38;;;7.03;;
37609;SDS011;23457;51.966;8.230;2023-01-10T05:18:36;25.63;;;7.18;;
37609;SDS011;23457;51.966;8.230;2023-01-10T05:21:03;28.52;;;8.27;;
37609;SDS011;23457;51.966;8.230;2023-01-10T05:23:31;26.95;;;7.85;;
37609;SDS011;23457;51.966;8.230;2023-01-10T05:26:05;18.67;;;7.10;;
37609;SDS011;23457;51.966;8.230;2023-01-10T05:28:36;28.52;;;7.60;;
37609;SDS011;23457;51.966;8.230;2023-01-10T05:31:06;21.98;;;7.53;;
37609;SDS011;23457;51.966;8.230;2023-01-10T05:33:34;25.35;;;6.93;;
37609;SDS011;23457;51.966;8.230;2023-01-10T05:36:02;25.95;;;9.13;;
37609;SDS011;23457;51.966;8.230;2023-01-10T05:38:31;27.33;;;7.57;;
37609;SDS011;23457;51.966;8.230;2023-01-10T05:40:58;22.42;;;8.20;;
37609;SDS011;23457;51.966;8.230;2023-01-10T05:43:25;22.15;;;7.90;;
37609;SDS011;23457;51.966;8.230;2023-01-10T05:45:53;34.10;;;9.35;;
37609;SDS011;23457;51.966;8.230;2023-01-10T05:48:20;25.35;;;8.35;;
37609;SDS011;23457;51.966;8.230;2023-01-10T05:50:48;28.80;;;8.90;;
37609;SDS011;23457;51.966;8.230;2023-01-10T05:53:15;22.35;;;9.32;;
37609;SDS011;23457;51.966;8.230;2023-01-10T05:55:42;27.95;;;9.32;;
37609;SDS011;23457;51.966;8.230;2023-01-10T05:58:09;33.75;;;9.45;;
37609;SDS011;23457;51.966;8.230;2023-01-10T06:00:38;33.15;;;9.65;;
37609;SDS011;23457;51.966;8.230;2023-01-10T06:03:05;32.22;;;10.00;;
37609;SDS011;23457;51.966;8.230;2023-01-10T06:05:32;33.35;;;9.65;;
37609;SDS011;23457;51.966;8.230;2023-01-10T06:07:59;30.10;;;9.38;;
37609;SDS011;23457;51.966;8.230;2023-01-10T06:10:25;21.83;;;8.75;;
37609;SDS011;23457;51.966;8.230;2023-01-10T06:12:52;28.10;;;9.88;;
37609;SDS011;23457;51.966;8.230;2023-01-10T06:15:19;34.28;;;10.50;;
37609;SDS011;23457;51.966;8.230;2023-01-10T06:17:46;29.92;;;9.95;;
37609;SDS011;23457;51.966;8.230;2023-01-10T06:20:12;32.20;;;9.57;;
37609;SDS011;23457;51.966;8.230;2023-01-10T06:22:40;32.70;;;10.35;;
37609;SDS011;23457;51.966;8.230;2023-01-10T06:25:08;31.25;;;10.30;;
37609;SDS011;23457;51.966;8.230;2023-01-10T06:27:40;30.83;;;9.75;;
37609;SDS011;23457;51.966;8.230;2023-01-10T06:30:08;30.77;;;10.20;;
37609;SDS011;23457;51.966;8.230;2023-01-10T06:32:35;35.25;;;10.80;;
37609;SDS011;23457;51.966;8.230;2023-01-10T06:35:02;26.33;;;10.20;;
37609;SDS011;23457;51.966;8.230;2023-01-10T06:37:30;32.97;;;11.57;;
37609;SDS011;23457;51.966;8.230;2023-01-10T06:39:56;28.27;;;10.60;;
37609;SDS011;23457;51.966;8.230;2023-01-10T06:42:23;27.83;;;11.02;;
37609;SDS011;23457;51.966;8.230;2023-01-10T06:44:50;28.83;;;11.65;;
37609;SDS011;23457;51.966;8.230;2023-01-10T06:47:16;37.08;;;12.20;;
37609;SDS011;23457;51.966;8.230;2023-01-10T06:49:43;31.08;;;11.18;;
37609;SDS011;23457;51.966;8.230;2023-01-10T06:52:09;29.08;;;11.23;;
37609;SDS011;23457;51.966;8.230;2023-01-10T06:54:36;32.33;;;11.25;;
37609;SDS011;23457;51.966;8.230;2023-01-10T06:57:03;27.00;;;11.48;;
37609;SDS011;23457;51.966;8.230;2023-01-10T06:59:30;33.65;;;13.57;;
37609;SDS011;23457;51.966;8.230;2023-01-10T07:01:56;32.70;;;11.32;;
37609;SDS011;23457;51.966;8.230;2023-01-10T07:04:23;29.83;;;11.45;;
37609;SDS011;23457;51.966;8.230;2023-01-10T07:06:52;32.58;;;12.25;;
37609;SDS011;23457;51.966;8.230;2023-01-10T07:09:19;36.92;;;11.10;;
37609;SDS011;23457;51.966;8.230;2023-01-10T07:11:45;29.85;;;11.00;;
37609;SDS011;23457;51.966;8.230;2023-01-10T07:14:12;31.88;;;10.30;;
37609;SDS011;23457;51.966;8.230;2023-01-10T07:16:38;26.13;;;10.05;;
37609;SDS011;23457;51.966;8.230;2023-01-10T07:19:05;31.55;;;10.05;;
37609;SDS011;23457;51.966;8.230;2023-01-10T07:21:32;30.77;;;9.88;;
37609;SDS011;23457;51.966;8.230;2023-01-10T07:23:58;30.50;;;9.45;;
37609;SDS011;23457;51.966;8.230;2023-01-10T07:26:27;35.53;;;10.45;;
37609;SDS011;23457;51.966;8.230;2023-01-10T07:28:55;27.40;;;9.13;;
37609;SDS011;23457;51.966;8.230;2023-01-10T07:31:22;25.27;;;8.82;;
37609;SDS011;23457;51.966;8.230;2023-01-10T07:33:50;24.92;;;8.65;;
37609;SDS011;23457;51.966;8.230;2023-01-10T07:36:17;36.05;;;8.93;;
37609;SDS011;23457;51.966;8.230;2023-01-10T07:38:45;31.38;;;8.77;;
37609;SDS011;23457;51.966;8.230;2023-01-10T07:41:12;20.50;;;8.68;;
37609;SDS011;23457;51.966;8.230;2023-01-10T07:43:38;24.25;;;7.60;;
37609;SDS011;23457;51.966;8.230;2023-01-10T07:46:06;28.75;;;7.60;;
37609;SDS011;23457;51.966;8.230;2023-01-10T07:48:35;29.98;;;7.88;;
37609;SDS011;23457;51.966;8.230;2023-01-10T07:51:02;30.02;;;7.38;;
37609;SDS011;23457;51.966;8.230;2023-01-10T07:53:30;32.13;;;7.60;;
37609;SDS011;23457;51.966;8.230;2023-01-10T07:55:57;26.25;;;7.50;;
37609;SDS011;23457;51.966;8.230;2023-01-10T07:58:26;30.27;;;6.90;;
37609;SDS011;23457;51.966;8.230;2023-01-10T08:00:59;34.92;;;7.97;;
37609;SDS011;23457;51.966;8.230;2023-01-10T08:03:28;32.60;;;7.18;;
37609;SDS011;23457;51.966;8.230;2023-01-10T08:05:56;26.73;;;7.40;;
37609;SDS011;23457;51.966;8.230;2023-01-10T08:08:27;27.77;;;7.07;;
37609;SDS011;23457;51.966;8.230;2023-01-10T08:10:55;32.05;;;5.93;;
37609;SDS011;23457;51.966;8.230;2023-01-10T08:13:22;30.08;;;7.25;;
37609;SDS011;23457;51.966;8.230;2023-01-10T08:15:49;28.45;;;6.47;;
37609;SDS011;23457;51.966;8.230;2023-01-10T08:18:17;30.80;;;6.80;;
37609;SDS011;23457;51.966;8.230;2023-01-10T08:20:47;24.75;;;6.10;;
37609;SDS011;23457;51.966;8.230;2023-01-10T08:23:15;29.35;;;6.55;;
37609;SDS011;23457;51.966;8.230;2023-01-10T08:25:43;33.47;;;6.32;;
37609;SDS011;23457;51.966;8.230;2023-01-10T08:28:10;27.17;;;7.70;;
37609;SDS011;23457;51.966;8.230;2023-01-10T08:30:37;26.40;;;6.45;;
37609;SDS011;23457;51.966;8.230;2023-01-10T08:33:05;33.47;;;6.68;;
37609;SDS011;23457;51.966;8.230;2023-01-10T08:35:36;26.17;;;7.05;;
37609;SDS011;23457;51.966;8.230;2023-01-10T08:38:07;30.65;;;8.27;;
37609;SDS011;23457;51.966;8.230;2023-01-10T08:40:34;33.92;;;9.18;;
37609;SDS011;23457;51.966;8.230;2023-01-10T08:43:02;31.88;;;8.02;;
37609;SDS011;23457;51.966;8.230;2023-01-10T08:45:31;40.45;;;9.40;;
37609;SDS011;23457;51.966;8.230;2023-01-10T08:47:59;32.10;;;8.18;;
37609;SDS011;23457;51.966;8.230;2023-01-10T08:50:26;32.15;;;8.88;;
37609;SDS011;23457;51.966;8.230;2023-01-10T08:52:52;28.40;;;7.88;;
37609;SDS011;23457;51.966;8.230;2023-01-10T08:55:19;41.28;;;7.50;;
37609;SDS011;23457;51.966;8.230;2023-01-10T08:57:46;39.25;;;7.93;;
37609;SDS011;23457;51.966;8.230;2023-01-10T09:00:13;34.10;;;7.53;;
37609;SDS011;23457;51.966;8.230;2023-01-10T09:02:40;34.17;;;7.32;;
37609;SDS011;23457;51.966;8.230;2023-01-10T09:05:08;30.83;;;8.02;;
37609;SDS011;23457;51.966;8.230;2023-01-10T09:07:51;37.58;;;9.95;;
37609;SDS011;23457;51.966;8.230;2023-01-10T09:10:18;35.67;;;10.27;;
37609;SDS011;23457;51.966;8.230;2023-01-10T09:12:46;32.03;;;9.10;;
37609;SDS011;23457;51.966;8.230;2023-01-10T09:15:27;28.58;;;8.40;;
37609;SDS011;23457;51.966;8.230;2023-01-10T09:17:56;40.38;;;8.85;;
37609;SDS011;23457;51.966;8.230;2023-01-10T09:20:24;35.33;;;9.55;;
37609;SDS011;23457;51.966;8.230;2023-01-10T09:22:52;45.25;;;9.93;;
37609;SDS011;23457;51.966;8.230;2023-01-10T09:25:20;40.35;;;9.25;;
37609;SDS011;23457;51.966;8.230;2023-01-10T09:27:54;30.83;;;8.63;;
37609;SDS011;23457;51.966;8.230;2023-01-10T09:30:22;44.75;;;10.05;;
37609;SDS011;23457;51.966;8.230;2023-01-10T09:32:50;42.40;;;9.23;;
37609;SDS011;23457;51.966;8.230;2023-01-10T09:35:17;36.65;;;9.38;;
37609;SDS011;23457;51.966;8.230;2023-01-10T09:37:44;35.30;;;9.57;;
37609;SDS011;23457;51.966;8.230;2023-01-10T09:40:15;35.55;;;9.15;;
37609;SDS011;23457;51.966;8.230;2023-01-10T09:43:01;41.47;;;10.15;;
37609;SDS011;23457;51.966;8.230;2023-01-10T09:45:47;35.28;;;10.48;;
37609;SDS011;23457;51.966;8.230;2023-01-10T09:48:22;33.13;;;10.02;;
37609;SDS011;23457;51.966;8.230;2023-01-10T09:51:00;38.03;;;10.88;;
37609;SDS011;23457;51.966;8.230;2023-01-10T09:53:42;41.10;;;10.90;;
37609;SDS011;23457;51.966;8.230;2023-01-10T09:56:12;39.38;;;10.65;;
37609;SDS011;23457;51.966;8.230;2023-01-10T09:58:41;34.00;;;10.85;;
37609;SDS011;23457;51.966;8.230;2023-01-10T10:01:10;37.67;;;10.55;;
37609;SDS011;23457;51.966;8.230;2023-01-10T10:06:37;36.03;;;10.27;;
37609;SDS011;23457;51.966;8.230;2023-01-10T10:09:04;44.40;;;10.63;;
37609;SDS011;23457;51.966;8.230;2023-01-10T10:34:32;43.05;;;9.48;;
37609;SDS011;23457;51.966;8.230;2023-01-10T10:40:00;36.97;;;9.00;;
37609;SDS011;23457;51.966;8.230;2023-01-10T10:42:33;34.40;;;9.25;;
37609;SDS011;23457;51.966;8.230;2023-01-10T10:45:05;30.63;;;8.98;;
37609;SDS011;23457;51.966;8.230;2023-01-10T10:47:48;34.53;;;9.90;;
37609;SDS011;23457;51.966;8.230;2023-01-10T10:50:43;40.92;;;10.30;;
37609;SDS011;23457;51.966;8.230;2023-01-10T10:53:24;38.00;;;10.93;;
37609;SDS011;23457;51.966;8.230;2023-01-10T10:55:50;38.00;;;10.52;;
37609;SDS011;23457;51.966;8.230;2023-01-10T10:58:18;36.90;;;11.23;;
37609;SDS011;23457;51.966;8.230;2023-01-10T11:00:45;35.95;;;9.93;;
37609;SDS011;23457;51.966;8.230;2023-01-10T11:03:15;46.15;;;10.70;;
37609;SDS011;23457;51.966;8.230;2023-01-10T11:05:58;42.00;;;10.65;;
37609;SDS011;23457;51.966;8.230;2023-01-10T11:08:26;51.45;;;10.32;;
37609;SDS011;23457;51.966;8.230;2023-01-10T11:10:55;38.87;;;9.50;;
37609;SDS011;23457;51.966;8.230;2023-01-10T11:16:01;47.35;;;10.70;;
37609;SDS011;23457;51.966;8.230;2023-01-10T11:18:31;45.33;;;10.20;;
37609;SDS011;23457;51.966;8.230;2023-01-10T11:21:08;49.67;;;11.20;;
37609;SDS011;23457;51.966;8.230;2023-01-10T11:29:04;35.08;;;9.80;;
37609;SDS011;23457;51.966;8.230;2023-01-10T11:31:41;29.73;;;9.35;;
37609;SDS011;23457;51.966;8.230;2023-01-10T11:36:57;37.53;;;10.38;;
37609;SDS011;23457;51.966;8.230;2023-01-10T11:39:27;39.38;;;9.45;;
37609;SDS011;23457;51.966;8.230;2023-01-10T11:41:55;36.70;;;9.48;;
37609;SDS011;23457;51.966;8.230;2023-01-10T11:44:25;36.13;;;9.02;;
37609;SDS011;23457;51.966;8.230;2023-01-10T11:46:57;34.28;;;9.40;;
37609;SDS011;23457;51.966;8.230;2023-01-10T11:49:31;28.02;;;10.50;;
37609;SDS011;23457;51.966;8.230;2023-01-10T11:52:04;43.55;;;9.85;;
37609;SDS011;23457;51.966;8.230;2023-01-10T11:54:39;29.02;;;9.52;;
37609;SDS011;23457;51.966;8.230;2023-01-10T11:57:23;38.72;;;8.55;;
37609;SDS011;23457;51.966;8.230;2023-01-10T12:00:10;28.25;;;7.05;;
37609;SDS011;23457;51.966;8.230;2023-01-10T12:02:42;32.20;;;6.18;;
37609;SDS011;23457;51.966;8.230;2023-01-10T12:05:11;33.88;;;7.13;;
37609;SDS011;23457;51.966;8.230;2023-01-10T12:07:58;30.92;;;6.35;;
37609;SDS011;23457;51.966;8.230;2023-01-10T12:10:31;28.60;;;6.65;;
37609;SDS011;23457;51.966;8.230;2023-01-10T12:13:42;37.33;;;5.32;;
37609;SDS011;23457;51.966;8.230;2023-01-10T12:16:12;28.02;;;5.90;;
37609;SDS011;23457;51.966;8.230;2023-01-10T12:18:51;37.15;;;6.65;;
37609;SDS011;23457;51.966;8.230;2023-01-10T12:21:38;26.88;;;5.65;;
37609;SDS011;23457;51.966;8.230;2023-01-10T12:24:15;32.80;;;6.40;;
37609;SDS011;23457;51.966;8.230;2023-01-10T12:26:47;37.72;;;6.25;;
37609;SDS011;23457;51.966;8.230;2023-01-10T12:29:18;27.85;;;5.50;;
37609;SDS011;23457;51.966;8.230;2023-01-10T12:31:50;35.78;;;6.20;;
37609;SDS011;23457;51.966;8.230;2023-01-10T12:34:19;27.33;;;5.07;;
37609;SDS011;23457;51.966;8.230;2023-01-10T12:39:58;27.48;;;5.82;;
37609;SDS011;23457;51.966;8.230;2023-01-10T12:42:52;34.80;;;5.90;;
37609;SDS011;23457;51.966;8.230;2023-01-10T12:45:45;33.53;;;5.78;;
37609;SDS011;23457;51.966;8.230;2023-01-10T12:48:20;30.25;;;5.65;;
37609;SDS011;23457;51.966;8.230;2023-01-10T12:50:55;30.63;;;6.50;;
37609;SDS011;23457;51.966;8.230;2023-01-10T12:53:32;27.17;;;4.97;;
37609;SDS011;23457;51.966;8.230;2023-01-10T12:56:04;30.05;;;6.00;;
37609;SDS011;23457;51.966;8.230;2023-01-10T13:01:12;35.42;;;5.78;;
37609;SDS011;23457;51.966;8.230;2023-01-10T13:03:42;30.70;;;6.05;;
37609;SDS011;23457;51.966;8.230;2023-01-10T13:06:15;36.35;;;5.88;;
37609;SDS011;23457;51.966;8.230;2023-01-10T13:08:48;27.17;;;5.43;;
37609;SDS011;23457;51.966;8.230;2023-01-10T13:11:16;33.55;;;5.82;;
37609;SDS011;23457;51.966;8.230;2023-01-10T13:13:48;32.75;;;5.57;;
37609;SDS011;23457;51.966;8.230;2023-01-10T13:16:35;30.52;;;6.15;;
37609;SDS011;23457;51.966;8.230;2023-01-10T13:21:40;34.03;;;6.93;;
37609;SDS011;23457;51.966;8.230;2023-01-10T13:26:59;26.48;;;5.22;;
37609;SDS011;23457;51.966;8.230;2023-01-10T13:29:38;34.53;;;5.35;;
37609;SDS011;23457;51.966;8.230;2023-01-10T13:32:19;27.97;;;5.53;;
37609;SDS011;23457;51.966;8.230;2023-01-10T13:34:48;22.08;;;4.43;;
37609;SDS011;23457;51.966;8.230;2023-01-10T13:39:56;25.52;;;4.68;;
37609;SDS011;23457;51.966;8.230;2023-01-10T13:42:31;28.30;;;5.00;;
37609;SDS011;23457;51.966;8.230;2023-01-10T14:00:51;33.65;;;4.93;;
37609;SDS011;23457;51.966;8.230;2023-01-10T14:03:48;30.85;;;4.32;;
37609;SDS011;23457;51.966;8.230;2023-01-10T14:09:00;26.98;;;4.30;;
37609;SDS011;23457;51.966;8.230;2023-01-10T14:14:17;26.52;;;4.68;;
37609;SDS011;23457;51.966;8.230;2023-01-10T14:16:48;25.60;;;4.30;;
37609;SDS011;23457;51.966;8.230;2023-01-10T14:19:35;22.85;;;3.92;;
37609;SDS011;23457;51.966;8.230;2023-01-10T14:22:02;21.65;;;3.85;;
37609;SDS011;23457;51.966;8.230;2023-01-10T14:27:14;30.90;;;4.47;;
37609;SDS011;23457;51.966;8.230;2023-01-10T14:30:01;30.33;;;4.47;;
37609;SDS011;23457;51.966;8.230;2023-01-10T14:32:40;24.05;;;3.60;;
37609;SDS011;23457;51.966;8.230;2023-01-10T14:35:19;31.92;;;4.85;;
37609;SDS011;23457;51.966;8.230;2023-01-10T14:38:13;24.38;;;4.03;;
37609;SDS011;23457;51.966;8.230;2023-01-10T14:41:17;23.42;;;3.97;;
37609;SDS011;23457;51.966;8.230;2023-01-10T14:44:35;25.63;;;4.32;;
37609;SDS011;23457;51.966;8.230;2023-01-10T14:46:56;35.92;;;3.58;;
37609;SDS011;23457;51.966;8.230;2023-01-10T14:49:34;22.70;;;3.42;;
37609;SDS011;23457;51.966;8.230;2023-01-10T14:52:18;21.38;;;3.58;;
37609;SDS011;23457;51.966;8.230;2023-01-10T14:54:46;23.25;;;3.40;;
37609;SDS011;23457;51.966;8.230;2023-01-10T14:57:22;24.73;;;4.30;;
37609;SDS011;23457;51.966;8.230;2023-01-10T14:59:49;22.38;;;4.40;;
37609;SDS011;23457;51.966;8.230;2023-01-10T15:02:23;22.98;;;3.83;;
37609;SDS011;23457;51.966;8.230;2023-01-10T15:07:23;26.25;;;4.10;;
37609;SDS011;23457;51.966;8.230;2023-01-10T15:09:52;22.17;;;4.80;;
37609;SDS011;23457;51.966;8.230;2023-01-10T15:12:23;23.15;;;4.50;;
37609;SDS011;23457;51.966;8.230;2023-01-10T15:14:54;25.05;;;4.47;;
37609;SDS011;23457;51.966;8.230;2023-01-10T15:17:27;27.13;;;3.70;;
37609;SDS011;23457;51.966;8.230;2023-01-10T15:19:56;22.00;;;3.72;;
37609;SDS011;23457;51.966;8.230;2023-01-10T15:22:40;27.73;;;3.38;;
37609;SDS011;23457;51.966;8.230;2023-01-10T15:27:48;26.98;;;4.35;;
37609;SDS011;23457;51.966;8.230;2023-01-10T15:30:20;24.58;;;3.60;;
37609;SDS011;23457;51.966;8.230;2023-01-10T15:33:01;14.68;;;3.00;;
37609;SDS011;23457;51.966;8.230;2023-01-10T15:35:31;14.10;;;3.25;;
37609;SDS011;23457;51.966;8.230;2023-01-10T15:38:03;18.35;;;3.15;;
37609;SDS011;23457;51.966;8.230;2023-01-10T15:40:34;18.20;;;3.28;;
37609;SDS011;23457;51.966;8.230;2023-01-10T15:45:49;28.67;;;4.28;;
37609;SDS011;23457;51.966;8.230;2023-01-10T15:48:36;19.25;;;3.00;;
37609;SDS011;23457;51.966;8.230;2023-01-10T15:51:12;17.38;;;3.03;;
37609;SDS011;23457;51.966;8.230;2023-01-10T15:53:51;22.17;;;3.50;;
37609;SDS011;23457;51.966;8.230;2023-01-10T15:56:37;19.92;;;3.80;;
37609;SDS011;23457;51.966;8.230;2023-01-10T16:04:43;15.02;;;2.83;;
37609;SDS011;23457;51.966;8.230;2023-01-10T16:07:30;22.52;;;3.42;;
37609;SDS011;23457;51.966;8.230;2023-01-10T16:10:03;22.20;;;2.90;;
37609;SDS011;23457;51.966;8.230;2023-01-10T16:12:37;19.40;;;3.35;;
37609;SDS011;23457;51.966;8.230;2023-01-10T16:15:25;21.67;;;3.00;;
37609;SDS011;23457;51.966;8.230;2023-01-10T16:17:53;20.80;;;2.97;;
37609;SDS011;23457;51.966;8.230;2023-01-10T16:20:28;15.13;;;2.53;;
37609;SDS011;23457;51.966;8.230;2023-01-10T16:23:12;23.42;;;3.17;;
37609;SDS011;23457;51.966;8.230;2023-01-10T16:25:43;21.42;;;3.15;;
37609;SDS011;23457;51.966;8.230;2023-01-10T16:28:13;15.10;;;3.42;;
37609;SDS011;23457;51.966;8.230;2023-01-10T16:30:41;18.02;;;2.97;;
37609;SDS011;23457;51.966;8.230;2023-01-10T16:33:15;17.08;;;2.92;;
37609;SDS011;23457;51.966;8.230;2023-01-10T16:35:56;19.70;;;3.55;;
37609;SDS011;23457;51.966;8.230;2023-01-10T16:38:25;21.27;;;3.13;;
37609;SDS011;23457;51.966;8.230;2023-01-10T16:40:54;20.27;;;4.40;;
37609;SDS011;23457;51.966;8.230;2023-01-10T16:43:23;28.20;;;4.57;;
37609;SDS011;23457;51.966;8.230;2023-01-10T16:45:53;23.90;;;3.42;;
37609;SDS011;23457;51.966;8.230;2023-01-10T16:48:29;18.95;;;2.67;;
37609;SDS011;23457;51.966;8.230;2023-01-10T16:51:15;19.20;;;3.00;;
37609;SDS011;23457;51.966;8.230;2023-01-10T16:53:43;13.88;;;3.30;;
37609;SDS011;23457;51.966;8.230;2023-01-10T16:56:12;16.25;;;2.92;;
37609;SDS011;23457;51.966;8.230;2023-01-10T16:58:40;18.63;;;3.10;;
37609;SDS011;23457;51.966;8.230;2023-01-10T17:01:11;19.50;;;2.83;;
37609;SDS011;23457;51.966;8.230;2023-01-10T17:03:42;17.42;;;3.20;;
37609;SDS011;23457;51.966;8.230;2023-01-10T17:06:13;12.18;;;2.83;;
37609;SDS011;23457;51.966;8.230;2023-01-10T17:08:41;19.13;;;3.20;;